Time;durP1;ratioP1;P1;durP2;ratioP2;P2;SDS_P1;SDS_P2;PMS_P1;PMS_P2;Temp;Humidity;BMP_temperature;BMP_pressure;BME280_temperature;BME280_humidity;BME280_pressure;Samples;Min_cycle;Max_cycle;Signal;HPM_P1;HPM_P2
2023/06/24 00:01:45;;;;;;;17.85;10.35;;;;;;;;;;4388143;32;318777;-76
2023/06/24 00:04:14;;;;;;;14.98;9.35;;;;;;;;;;4377227;32;318890;-77
2023/06/24 00:06:42;;;;;;;18.50;9.60;;;;;;;;;;4386788;32;317952;-78
2023/06/24 00:09:09;;;;;;;16.23;10.15;;;;;;;;;;4371650;32;317746;-77
2023/06/24 00:11:38;;;;;;;16.70;9.52;;;;;;;;;;4385210;32;318752;-80
2023/06/24 00:14:06;;;;;;;14.55;8.93;;;;;;;;;;4375572;32;318712;-85
2023/06/24 00:16:33;;;;;;;20.70;9.95;;;;;;;;;;4385494;32;317757;-80
2023/06/24 00:19:01;;;;;;;18.90;9.48;;;;;;;;;;4386581;32;317807;-82
2023/06/24 00:21:29;;;;;;;12.57;9.88;;;;;;;;;;4374285;32;317912;-77
2023/06/24 00:23:57;;;;;;;17.45;10.15;;;;;;;;;;4385781;32;317727;-83
2023/06/24 00:26:25;;;;;;;13.82;9.55;;;;;;;;;;4375555;32;318856;-81
2023/06/24 00:28:54;;;;;;;15.63;10.25;;;;;;;;;;4385972;32;318116;-82
2023/06/24 00:31:22;;;;;;;18.45;10.30;;;;;;;;;;4375295;32;319028;-77
2023/06/24 00:33:52;;;;;;;19.37;9.75;;;;;;;;;;4385203;32;318920;-92
2023/06/24 00:36:19;;;;;;;17.92;9.25;;;;;;;;;;4376459;32;317691;-77
2023/06/24 00:38:48;;;;;;;16.37;9.73;;;;;;;;;;4385518;32;317678;-84
2023/06/24 00:41:18;;;;;;;12.82;9.73;;;;;;;;;;4375129;32;317784;-77
2023/06/24 00:43:45;;;;;;;12.63;10.00;;;;;;;;;;4385009;32;317817;-90
2023/06/24 00:46:15;;;;;;;13.70;9.63;;;;;;;;;;4376226;32;318827;-89
2023/06/24 00:48:43;;;;;;;18.65;10.25;;;;;;;;;;4385071;32;317703;-78
2023/06/24 00:51:10;;;;;;;13.15;10.20;;;;;;;;;;4374687;32;318946;-77
2023/06/24 00:53:38;;;;;;;23.77;10.30;;;;;;;;;;4386392;32;318911;-80
2023/06/24 00:56:06;;;;;;;18.23;9.70;;;;;;;;;;4374699;32;319143;-80
2023/06/24 00:58:36;;;;;;;16.15;10.50;;;;;;;;;;4384985;32;317782;-80
2023/06/24 01:01:05;;;;;;;12.15;9.23;;;;;;;;;;4386255;32;318809;-77
2023/06/24 01:03:34;;;;;;;13.07;10.10;;;;;;;;;;4371197;32;417265;-80
2023/06/24 01:06:02;;;;;;;18.77;9.90;;;;;;;;;;4386659;32;318725;-82
2023/06/24 01:08:29;;;;;;;13.50;9.15;;;;;;;;;;4375957;32;325175;-80
2023/06/24 01:10:57;;;;;;;18.73;9.75;;;;;;;;;;4385153;32;317688;-80
2023/06/24 01:13:24;;;;;;;17.62;10.15;;;;;;;;;;4375340;32;317844;-76
2023/06/24 01:15:51;;;;;;;19.25;11.57;;;;;;;;;;4385127;32;318684;-77
2023/06/24 01:18:25;;;;;;;12.23;8.88;;;;;;;;;;4374408;32;318926;-79
2023/06/24 01:20:59;;;;;;;17.42;9.40;;;;;;;;;;4385650;32;317884;-77
2023/06/24 01:23:54;;;;;;;19.92;10.13;;;;;;;;;;4375738;32;318136;-77
2023/06/24 01:26:35;;;;;;;15.38;10.10;;;;;;;;;;4375872;32;318868;-76
2023/06/24 01:29:32;;;;;;;13.07;9.90;;;;;;;;;;4386296;32;318812;-77
2023/06/24 01:32:06;;;;;;;13.77;10.15;;;;;;;;;;4372400;32;420419;-77
2023/06/24 01:34:38;;;;;;;19.52;10.57;;;;;;;;;;4372114;32;419171;-77
2023/06/24 01:37:17;;;;;;;16.10;10.25;;;;;;;;;;4375612;32;318870;-85
2023/06/24 01:39:48;;;;;;;17.65;10.75;;;;;;;;;;4387190;32;318910;-93
2023/06/24 01:42:18;;;;;;;17.17;10.55;;;;;;;;;;4378699;32;318752;-77
2023/06/24 01:44:48;;;;;;;10.80;9.38;;;;;;;;;;4388125;32;319207;-77
2023/06/24 01:47:21;;;;;;;10.88;9.63;;;;;;;;;;4375776;32;317924;-77
2023/06/24 01:49:50;;;;;;;17.58;9.25;;;;;;;;;;4388965;32;317679;-77
2023/06/24 01:52:22;;;;;;;14.98;10.63;;;;;;;;;;4375593;32;317721;-82
2023/06/24 01:54:51;;;;;;;12.52;9.52;;;;;;;;;;4388063;32;318852;-77
2023/06/24 01:57:19;;;;;;;15.55;9.98;;;;;;;;;;4378722;32;324930;-77
2023/06/24 01:59:47;;;;;;;16.27;10.38;;;;;;;;;;4387743;32;317753;-77
2023/06/24 02:02:20;;;;;;;17.12;9.43;;;;;;;;;;4376165;32;319176;-80
2023/06/24 02:04:47;;;;;;;15.85;9.95;;;;;;;;;;4389272;32;317938;-80
2023/06/24 02:07:16;;;;;;;16.80;8.82;;;;;;;;;;4376521;32;317719;-80
2023/06/24 02:09:45;;;;;;;14.15;9.82;;;;;;;;;;4388952;32;318071;-82
2023/06/24 02:12:13;;;;;;;14.15;10.50;;;;;;;;;;4376014;32;317489;-77
2023/06/24 02:14:42;;;;;;;17.55;9.93;;;;;;;;;;4387502;32;318748;-83
2023/06/24 02:17:11;;;;;;;18.75;10.07;;;;;;;;;;4374320;32;317866;-76
2023/06/24 02:19:41;;;;;;;14.93;11.02;;;;;;;;;;4387462;32;322959;-76
2023/06/24 02:22:10;;;;;;;14.43;9.55;;;;;;;;;;4377974;32;319001;-77
2023/06/24 02:24:38;;;;;;;19.60;10.52;;;;;;;;;;4388596;32;317790;-76
2023/06/24 02:27:08;;;;;;;13.43;10.57;;;;;;;;;;4374441;32;318772;-78
2023/06/24 02:29:38;;;;;;;15.68;10.25;;;;;;;;;;4386231;32;358126;-89
2023/06/24 02:32:07;;;;;;;14.82;9.93;;;;;;;;;;4372714;32;329899;-78
2023/06/24 02:34:35;;;;;;;15.52;9.82;;;;;;;;;;4387671;32;317682;-77
2023/06/24 02:37:05;;;;;;;19.25;11.48;;;;;;;;;;4387338;32;317825;-84
2023/06/24 02:39:32;;;;;;;17.25;10.18;;;;;;;;;;4374843;32;418155;-77
2023/06/24 02:42:00;;;;;;;15.40;10.70;;;;;;;;;;4386611;32;318889;-79
2023/06/24 02:44:27;;;;;;;11.73;10.07;;;;;;;;;;4377366;32;318895;-77
2023/06/24 02:46:55;;;;;;;19.20;9.82;;;;;;;;;;4387212;32;318709;-81
2023/06/24 02:49:23;;;;;;;13.88;9.98;;;;;;;;;;4376519;32;317786;-82
2023/06/24 02:51:51;;;;;;;17.27;10.25;;;;;;;;;;4387811;32;317888;-80
2023/06/24 02:54:20;;;;;;;15.48;10.98;;;;;;;;;;4377132;32;318784;-82
2023/06/24 02:56:48;;;;;;;15.57;10.60;;;;;;;;;;4388397;32;318773;-81
2023/06/24 02:59:15;;;;;;;17.27;11.45;;;;;;;;;;4377313;32;319139;-81
2023/06/24 03:01:44;;;;;;;14.55;10.35;;;;;;;;;;4386096;32;318761;-81
2023/06/24 03:04:13;;;;;;;15.18;10.32;;;;;;;;;;4376718;32;319098;-80
2023/06/24 03:06:41;;;;;;;16.08;9.65;;;;;;;;;;4387921;32;318825;-82
2023/06/24 03:09:09;;;;;;;15.50;10.80;;;;;;;;;;4376684;32;317672;-81
2023/06/24 03:11:43;;;;;;;14.32;10.00;;;;;;;;;;4387831;32;318779;-81
2023/06/24 03:14:11;;;;;;;15.63;10.43;;;;;;;;;;4376400;32;318964;-81
2023/06/24 03:16:39;;;;;;;20.58;10.55;;;;;;;;;;4393150;32;319273;-82
2023/06/24 03:19:06;;;;;;;23.67;10.82;;;;;;;;;;4374750;32;402328;-83
2023/06/24 03:21:34;;;;;;;13.45;9.70;;;;;;;;;;4386389;32;318835;-82
2023/06/24 03:24:01;;;;;;;19.33;10.27;;;;;;;;;;4387458;32;317731;-77
2023/06/24 03:26:34;;;;;;;13.65;9.68;;;;;;;;;;4375243;32;319301;-77
2023/06/24 03:29:03;;;;;;;16.90;10.70;;;;;;;;;;4387710;32;317996;-77
2023/06/24 03:31:30;;;;;;;20.88;10.48;;;;;;;;;;4373439;32;418104;-77
2023/06/24 03:33:58;;;;;;;14.45;9.35;;;;;;;;;;4385988;32;318714;-84
2023/06/24 03:36:25;;;;;;;19.33;10.40;;;;;;;;;;4376198;32;317880;-78
2023/06/24 03:38:53;;;;;;;16.25;9.77;;;;;;;;;;4386241;32;318714;-79
2023/06/24 03:41:20;;;;;;;23.65;10.65;;;;;;;;;;4377001;32;317982;-78
2023/06/24 03:43:48;;;;;;;20.70;10.13;;;;;;;;;;4387564;32;318980;-80
2023/06/24 03:46:17;;;;;;;18.02;9.63;;;;;;;;;;4377195;32;319033;-78
2023/06/24 03:48:45;;;;;;;17.10;10.00;;;;;;;;;;4386941;32;317909;-79
2023/06/24 03:51:12;;;;;;;17.40;10.60;;;;;;;;;;4376116;32;318968;-78
2023/06/24 03:53:39;;;;;;;25.27;12.77;;;;;;;;;;4387079;32;317628;-78
2023/06/24 03:56:07;;;;;;;22.80;11.50;;;;;;;;;;4374762;32;318814;-86
2023/06/24 03:58:34;;;;;;;14.75;10.85;;;;;;;;;;4386905;32;318960;-78
2023/06/24 04:01:03;;;;;;;18.90;10.15;;;;;;;;;;4385970;32;318623;-82
2023/06/24 04:03:32;;;;;;;15.88;11.63;;;;;;;;;;4373083;32;418122;-83
2023/06/24 04:06:01;;;;;;;21.02;11.73;;;;;;;;;;4386083;32;319049;-76
2023/06/24 04:08:29;;;;;;;17.48;10.98;;;;;;;;;;4376517;32;319042;-82
2023/06/24 04:10:56;;;;;;;19.00;11.07;;;;;;;;;;4387218;32;318679;-81
2023/06/24 04:13:24;;;;;;;17.98;11.73;;;;;;;;;;4374337;32;318666;-80
2023/06/24 04:15:51;;;;;;;20.83;11.82;;;;;;;;;;4386543;32;317720;-80
2023/06/24 04:18:20;;;;;;;20.02;11.77;;;;;;;;;;4376153;32;329303;-81
2023/06/24 04:20:49;;;;;;;18.77;11.95;;;;;;;;;;4386145;32;318877;-80
2023/06/24 04:23:16;;;;;;;16.90;10.95;;;;;;;;;;4375856;32;318918;-81
2023/06/24 04:25:44;;;;;;;15.63;11.48;;;;;;;;;;4387087;32;318982;-81
2023/06/24 04:28:11;;;;;;;19.77;11.05;;;;;;;;;;4375244;32;319079;-76
2023/06/24 04:30:39;;;;;;;13.98;11.75;;;;;;;;;;4389495;32;319146;-76
2023/06/24 04:33:06;;;;;;;14.93;11.48;;;;;;;;;;4377428;32;319250;-76
2023/06/24 04:35:34;;;;;;;16.65;11.88;;;;;;;;;;4384875;32;318821;-75
2023/06/24 04:38:03;;;;;;;22.50;12.13;;;;;;;;;;4385995;32;318835;-75
2023/06/24 04:40:30;;;;;;;21.40;13.20;;;;;;;;;;4372345;32;417927;-75
2023/06/24 04:42:58;;;;;;;23.85;12.40;;;;;;;;;;4385158;32;350785;-76
2023/06/24 04:45:25;;;;;;;15.63;11.43;;;;;;;;;;4374454;32;319103;-75
2023/06/24 04:47:53;;;;;;;20.37;13.25;;;;;;;;;;4385862;32;318781;-75
2023/06/24 04:50:20;;;;;;;15.48;11.82;;;;;;;;;;4375923;32;318841;-75
2023/06/24 04:52:54;;;;;;;18.23;11.48;;;;;;;;;;4383431;32;318993;-75
2023/06/24 04:55:24;;;;;;;23.77;12.23;;;;;;;;;;4375679;32;319312;-75
2023/06/24 04:57:52;;;;;;;13.32;10.85;;;;;;;;;;4386067;32;318994;-78
2023/06/24 05:00:22;;;;;;;17.83;11.88;;;;;;;;;;4361220;32;318816;-76
2023/06/24 05:02:50;;;;;;;18.58;11.18;;;;;;;;;;4383949;32;318896;-75
2023/06/24 05:05:17;;;;;;;16.62;12.90;;;;;;;;;;4375842;32;318959;-76
2023/06/24 05:07:45;;;;;;;19.15;10.50;;;;;;;;;;4386390;32;319060;-79
2023/06/24 05:10:12;;;;;;;17.45;11.27;;;;;;;;;;4373859;32;318957;-79
2023/06/24 05:12:41;;;;;;;21.62;11.52;;;;;;;;;;4384974;32;345764;-81
2023/06/24 05:15:09;;;;;;;21.12;11.27;;;;;;;;;;4375447;32;346717;-78
2023/06/24 05:17:37;;;;;;;15.30;11.82;;;;;;;;;;4384939;32;318859;-80
2023/06/24 05:20:05;;;;;;;18.83;12.37;;;;;;;;;;4386367;32;319072;-79
2023/06/24 05:22:32;;;;;;;16.42;11.23;;;;;;;;;;4373329;32;418113;-81
2023/06/24 05:25:00;;;;;;;19.37;12.60;;;;;;;;;;4385394;32;318797;-77
2023/06/24 05:27:27;;;;;;;18.83;11.68;;;;;;;;;;4375848;32;319308;-76
2023/06/24 05:29:56;;;;;;;25.80;12.40;;;;;;;;;;4385836;32;334943;-76
2023/06/24 05:32:24;;;;;;;20.20;12.00;;;;;;;;;;4374758;32;319091;-76
2023/06/24 05:34:51;;;;;;;17.92;12.10;;;;;;;;;;4385991;32;318803;-76
2023/06/24 05:37:19;;;;;;;34.50;12.27;;;;;;;;;;4373626;32;320972;-76
2023/06/24 05:39:46;;;;;;;14.38;11.77;;;;;;;;;;4384725;32;319032;-76
2023/06/24 05:42:13;;;;;;;21.58;13.10;;;;;;;;;;4375534;32;319046;-76
2023/06/24 05:44:41;;;;;;;19.70;11.80;;;;;;;;;;4385241;32;318916;-76
2023/06/24 05:47:09;;;;;;;21.75;13.20;;;;;;;;;;4372124;32;318813;-75
2023/06/24 05:49:37;;;;;;;15.27;12.32;;;;;;;;;;4384955;32;319197;-76
2023/06/24 05:52:05;;;;;;;16.42;11.57;;;;;;;;;;4385518;32;318807;-76
2023/06/24 05:54:32;;;;;;;22.33;12.55;;;;;;;;;;4371881;32;418413;-76
2023/06/24 05:57:00;;;;;;;20.23;13.15;;;;;;;;;;4385840;32;318831;-75
2023/06/24 05:59:27;;;;;;;15.80;12.20;;;;;;;;;;4374189;32;318878;-76
2023/06/24 06:01:55;;;;;;;20.23;12.52;;;;;;;;;;4385784;32;318664;-77
2023/06/24 06:04:23;;;;;;;18.45;13.38;;;;;;;;;;4373792;32;319402;-87
2023/06/24 06:06:51;;;;;;;19.00;12.82;;;;;;;;;;4385211;32;318949;-86
2023/06/24 06:09:18;;;;;;;18.75;13.05;;;;;;;;;;4376271;32;318843;-87
2023/06/24 06:11:45;;;;;;;14.68;12.18;;;;;;;;;;4385941;32;318920;-79
2023/06/24 06:14:13;;;;;;;22.17;12.33;;;;;;;;;;4373391;32;344241;-76
2023/06/24 06:16:40;;;;;;;19.80;12.60;;;;;;;;;;4384418;32;319218;-77
2023/06/24 06:19:07;;;;;;;17.00;12.98;;;;;;;;;;4374677;32;318782;-78
2023/06/24 06:21:38;;;;;;;14.27;12.15;;;;;;;;;;4373840;32;318988;-77
2023/06/24 06:24:06;;;;;;;23.42;12.02;;;;;;;;;;4375632;32;319022;-77
2023/06/24 06:26:33;;;;;;;21.77;13.43;;;;;;;;;;4387172;32;318816;-88
2023/06/24 06:29:01;;;;;;;22.13;12.63;;;;;;;;;;4377348;32;318855;-88
2023/06/24 06:31:28;;;;;;;21.35;11.90;;;;;;;;;;4388713;32;318696;-87
2023/06/24 06:33:55;;;;;;;26.08;13.00;;;;;;;;;;4374819;32;356382;-88
2023/06/24 06:36:22;;;;;;;21.87;14.45;;;;;;;;;;4388433;32;318761;-88
2023/06/24 06:38:51;;;;;;;19.60;13.00;;;;;;;;;;4388437;32;319284;-86
2023/06/24 06:41:24;;;;;;;16.62;13.20;;;;;;;;;;4376939;32;419677;-88
2023/06/24 06:43:51;;;;;;;21.58;13.18;;;;;;;;;;4391422;32;318769;-84
2023/06/24 06:46:19;;;;;;;20.42;14.85;;;;;;;;;;4375276;32;418231;-88
2023/06/24 06:48:46;;;;;;;22.37;14.05;;;;;;;;;;4388080;32;318848;-84
2023/06/24 06:51:14;;;;;;;21.12;12.95;;;;;;;;;;4377118;32;318878;-88
2023/06/24 06:53:41;;;;;;;17.87;13.52;;;;;;;;;;4387949;32;318753;-87
2023/06/24 06:56:10;;;;;;;20.42;12.90;;;;;;;;;;4376826;32;318863;-89
2023/06/24 06:58:38;;;;;;;26.00;14.07;;;;;;;;;;4387973;32;318791;-86
2023/06/24 07:01:05;;;;;;;17.08;12.82;;;;;;;;;;4377013;32;318957;-88
2023/06/24 07:03:33;;;;;;;23.40;15.35;;;;;;;;;;4388248;32;317802;-88
2023/06/24 07:06:00;;;;;;;23.50;17.58;;;;;;;;;;4377810;32;319045;-89
2023/06/24 07:08:27;;;;;;;21.33;14.50;;;;;;;;;;4386734;32;318879;-80
2023/06/24 07:10:55;;;;;;;29.50;15.43;;;;;;;;;;4378083;32;318911;-80
2023/06/24 07:13:23;;;;;;;18.52;14.98;;;;;;;;;;4387322;32;318814;-80
2023/06/24 07:15:51;;;;;;;24.80;14.60;;;;;;;;;;4387666;32;318921;-81
2023/06/24 07:18:18;;;;;;;28.15;13.60;;;;;;;;;;4376017;32;318742;-81
2023/06/24 07:20:45;;;;;;;23.30;13.43;;;;;;;;;;4386558;32;319072;-78
2023/06/24 07:23:13;;;;;;;22.27;14.55;;;;;;;;;;4376573;32;318765;-75
2023/06/24 07:25:40;;;;;;;18.77;14.55;;;;;;;;;;4387475;32;318864;-78
2023/06/24 07:28:07;;;;;;;19.75;13.62;;;;;;;;;;4374938;32;318841;-75
2023/06/24 07:30:36;;;;;;;25.45;14.65;;;;;;;;;;4387447;32;318760;-75
2023/06/24 07:33:05;;;;;;;19.85;14.57;;;;;;;;;;4374876;32;318713;-75
2023/06/24 07:35:33;;;;;;;23.98;14.93;;;;;;;;;;4385836;32;335655;-75
2023/06/24 07:38:00;;;;;;;26.42;17.08;;;;;;;;;;4375293;32;318728;-82
2023/06/24 07:40:27;;;;;;;20.30;15.20;;;;;;;;;;4386051;32;318788;-76
2023/06/24 07:42:55;;;;;;;16.52;13.45;;;;;;;;;;4376736;32;319232;-81
2023/06/24 07:45:23;;;;;;;22.25;15.32;;;;;;;;;;4386544;32;319072;-75
2023/06/24 07:47:52;;;;;;;23.27;20.80;;;;;;;;;;4384867;32;318963;-75
2023/06/24 07:50:20;;;;;;;22.90;14.10;;;;;;;;;;4372162;32;418103;-75
2023/06/24 07:52:47;;;;;;;15.45;12.05;;;;;;;;;;4386599;32;318791;-75
2023/06/24 07:55:14;;;;;;;14.77;13.10;;;;;;;;;;4375836;32;318686;-79
2023/06/24 07:57:46;;;;;;;16.90;12.57;;;;;;;;;;4386855;32;318768;-79
2023/06/24 08:00:15;;;;;;;20.55;12.20;;;;;;;;;;4375106;32;318793;-75
2023/06/24 08:02:42;;;;;;;23.02;13.18;;;;;;;;;;4385608;32;318756;-86
2023/06/24 08:05:11;;;;;;;18.40;13.60;;;;;;;;;;4376881;32;318734;-80
2023/06/24 08:07:39;;;;;;;21.58;15.38;;;;;;;;;;4384435;32;318691;-86
2023/06/24 08:10:07;;;;;;;16.55;13.20;;;;;;;;;;4375152;32;352899;-76
2023/06/24 08:12:34;;;;;;;13.57;11.73;;;;;;;;;;4384190;32;318889;-75
2023/06/24 08:15:01;;;;;;;14.60;13.10;;;;;;;;;;4376330;32;318756;-86
2023/06/24 08:17:29;;;;;;;17.60;12.63;;;;;;;;;;4386952;32;319167;-86
2023/06/24 08:19:56;;;;;;;19.58;12.40;;;;;;;;;;4372650;32;327383;-85
2023/06/24 08:22:25;;;;;;;14.65;12.37;;;;;;;;;;4386270;32;318874;-85
2023/06/24 08:24:52;;;;;;;18.02;12.88;;;;;;;;;;4385369;32;318953;-85
2023/06/24 08:27:20;;;;;;;16.50;12.10;;;;;;;;;;4372858;32;418161;-82
2023/06/24 08:29:47;;;;;;;17.65;13.27;;;;;;;;;;4386847;32;318659;-75
2023/06/24 08:32:14;;;;;;;22.30;11.75;;;;;;;;;;4376166;32;332661;-76
2023/06/24 08:34:42;;;;;;;18.00;12.60;;;;;;;;;;4385512;32;318637;-78
2023/06/24 08:37:09;;;;;;;17.70;11.93;;;;;;;;;;4376397;32;318850;-77
2023/06/24 08:39:38;;;;;;;16.30;11.12;;;;;;;;;;4385329;32;325043;-85
2023/06/24 08:42:06;;;;;;;22.25;11.30;;;;;;;;;;4373887;32;318810;-85
2023/06/24 08:44:33;;;;;;;18.27;11.60;;;;;;;;;;4387111;32;318726;-86
2023/06/24 08:47:01;;;;;;;15.68;11.98;;;;;;;;;;4381651;32;318847;-85
2023/06/24 08:49:31;;;;;;;16.50;13.05;;;;;;;;;;4393902;32;318765;-87
2023/06/24 08:52:03;;;;;;;21.30;13.15;;;;;;;;;;4381488;32;372237;-87
2023/06/24 08:54:32;;;;;;;15.68;12.45;;;;;;;;;;4393578;32;318444;-86
2023/06/24 08:57:04;;;;;;;19.25;12.60;;;;;;;;;;4377601;32;318846;-86
2023/06/24 08:59:32;;;;;;;15.20;11.75;;;;;;;;;;4386788;32;319040;-85
2023/06/24 09:01:59;;;;;;;14.73;10.95;;;;;;;;;;4374157;32;351567;-88
2023/06/24 09:04:27;;;;;;;11.90;10.60;;;;;;;;;;4386953;32;318852;-88
2023/06/24 09:06:54;;;;;;;18.10;11.50;;;;;;;;;;4367175;32;318967;-82
2023/06/24 09:09:24;;;;;;;17.00;11.75;;;;;;;;;;4385434;32;319001;-87
2023/06/24 09:11:54;;;;;;;22.48;11.32;;;;;;;;;;4386286;32;318940;-80
2023/06/24 09:14:24;;;;;;;17.75;10.93;;;;;;;;;;4365444;32;418367;-81
2023/06/24 09:16:56;;;;;;;12.75;10.27;;;;;;;;;;4384704;32;318744;-86
2023/06/24 09:19:24;;;;;;;21.37;10.65;;;;;;;;;;4371197;32;418747;-83
2023/06/24 09:21:52;;;;;;;13.65;10.70;;;;;;;;;;4386203;32;318750;-85
2023/06/24 09:24:20;;;;;;;16.70;10.73;;;;;;;;;;4375802;32;418720;-79
2023/06/24 09:26:47;;;;;;;15.38;11.02;;;;;;;;;;4389920;32;319208;-81
2023/06/24 09:29:15;;;;;;;15.45;11.15;;;;;;;;;;4375269;32;318973;-86
2023/06/24 09:31:52;;;;;;;15.88;11.18;;;;;;;;;;4386108;32;318940;-81
2023/06/24 09:34:20;;;;;;;22.87;11.85;;;;;;;;;;4372252;32;420702;-83
2023/06/24 09:36:53;;;;;;;13.15;11.35;;;;;;;;;;4384963;32;317743;-85
2023/06/24 09:39:22;;;;;;;20.67;14.20;;;;;;;;;;4372892;32;418170;-86
2023/06/24 09:41:51;;;;;;;13.90;11.10;;;;;;;;;;4386137;32;318914;-86
2023/06/24 09:44:19;;;;;;;21.85;11.57;;;;;;;;;;4374577;32;325974;-86
2023/06/24 09:46:47;;;;;;;18.20;11.38;;;;;;;;;;4386134;32;318780;-85
2023/06/24 09:49:16;;;;;;;17.45;11.32;;;;;;;;;;4375179;32;318700;-81
2023/06/24 09:51:46;;;;;;;19.40;11.80;;;;;;;;;;4385412;32;318554;-80
2023/06/24 09:54:15;;;;;;;18.80;12.68;;;;;;;;;;4375580;32;318734;-80
2023/06/24 09:56:45;;;;;;;18.85;11.90;;;;;;;;;;4385282;32;318691;-80
2023/06/24 09:59:14;;;;;;;17.30;13.13;;;;;;;;;;4373773;32;318714;-81
2023/06/24 10:01:43;;;;;;;25.48;13.13;;;;;;;;;;4388474;32;318618;-81
2023/06/24 10:04:14;;;;;;;21.70;13.30;;;;;;;;;;4376206;32;342981;-81
2023/06/24 10:06:44;;;;;;;14.52;12.90;;;;;;;;;;4387455;32;319071;-81
2023/06/24 10:09:16;;;;;;;15.75;12.70;;;;;;;;;;4377287;32;318601;-79
2023/06/24 10:11:44;;;;;;;17.45;12.27;;;;;;;;;;4387482;32;318854;-79
2023/06/24 10:14:12;;;;;;;16.23;12.37;;;;;;;;;;4376525;32;318596;-82
2023/06/24 10:16:39;;;;;;;14.35;12.00;;;;;;;;;;4388225;32;319059;-82
2023/06/24 10:19:07;;;;;;;14.00;12.43;;;;;;;;;;4375276;32;319056;-81
2023/06/24 10:21:50;;;;;;;19.62;11.77;;;;;;;;;;4388177;32;318916;-82
2023/06/24 10:24:30;;;;;;;16.58;11.23;;;;;;;;;;4377189;32;319045;-81
2023/06/24 10:27:03;;;;;;;20.55;13.27;;;;;;;;;;4374420;32;318713;-80
2023/06/24 10:29:35;;;;;;;16.77;11.43;;;;;;;;;;4386909;32;318758;-81
2023/06/24 10:32:07;;;;;;;12.65;11.30;;;;;;;;;;4377145;32;318828;-81
2023/06/24 10:34:40;;;;;;;24.67;10.63;;;;;;;;;;4388205;32;330810;-85
2023/06/24 10:37:15;;;;;;;13.73;11.80;;;;;;;;;;4378030;32;318909;-85
2023/06/24 10:39:48;;;;;;;12.82;10.60;;;;;;;;;;4387301;32;318585;-82
2023/06/24 10:42:41;;;;;;;22.08;10.20;;;;;;;;;;4377506;32;353530;-85
2023/06/24 10:45:17;;;;;;;15.98;11.00;;;;;;;;;;4377398;32;318612;-84
2023/06/24 10:47:46;;;;;;;14.07;11.48;;;;;;;;;;4385360;32;318912;-85
2023/06/24 10:50:14;;;;;;;13.73;10.63;;;;;;;;;;4377058;32;318880;-84
2023/06/24 10:52:45;;;;;;;15.25;12.13;;;;;;;;;;4385396;32;318752;-85
2023/06/24 10:55:15;;;;;;;13.38;10.70;;;;;;;;;;4377253;32;318761;-84
2023/06/24 10:57:42;;;;;;;20.33;11.48;;;;;;;;;;4387514;32;319667;-84
2023/06/24 11:00:11;;;;;;;16.87;12.82;;;;;;;;;;4377541;32;318961;-84
2023/06/24 11:02:39;;;;;;;19.95;11.55;;;;;;;;;;4387159;32;318862;-84
2023/06/24 11:05:07;;;;;;;12.90;11.52;;;;;;;;;;4377518;32;318782;-78
2023/06/24 11:07:37;;;;;;;14.38;11.98;;;;;;;;;;4387505;32;318767;-78
2023/06/24 11:10:08;;;;;;;15.77;11.80;;;;;;;;;;4376487;32;319250;-79
2023/06/24 11:12:37;;;;;;;18.45;12.20;;;;;;;;;;4386794;32;318768;-79
2023/06/24 11:15:06;;;;;;;15.98;10.52;;;;;;;;;;4377684;32;318894;-78
2023/06/24 11:17:34;;;;;;;17.60;11.40;;;;;;;;;;4387829;32;318897;-78
2023/06/24 11:20:02;;;;;;;13.40;11.55;;;;;;;;;;4377012;32;318947;-85
2023/06/24 11:22:30;;;;;;;18.75;11.90;;;;;;;;;;4387643;32;318944;-84
2023/06/24 11:24:57;;;;;;;18.87;13.55;;;;;;;;;;4377369;32;318981;-85
2023/06/24 11:27:31;;;;;;;14.10;12.60;;;;;;;;;;4386062;32;355966;-80
2023/06/24 11:30:01;;;;;;;17.12;12.30;;;;;;;;;;4377518;32;318765;-81
2023/06/24 11:32:36;;;;;;;23.73;13.20;;;;;;;;;;4386759;32;346706;-87
2023/06/24 11:35:05;;;;;;;22.23;14.02;;;;;;;;;;4376112;32;318606;-81
2023/06/24 11:37:33;;;;;;;40.92;17.20;;;;;;;;;;4386238;32;318970;-80
2023/06/24 11:40:05;;;;;;;27.58;17.55;;;;;;;;;;4376703;32;318756;-82
2023/06/24 11:42:37;;;;;;;32.78;17.75;;;;;;;;;;4385915;32;317789;-81
2023/06/24 11:45:06;;;;;;;36.80;16.08;;;;;;;;;;4375939;32;319077;-82
2023/06/24 11:47:34;;;;;;;19.30;14.02;;;;;;;;;;4386924;32;318844;-81
2023/06/24 11:50:02;;;;;;;21.85;13.02;;;;;;;;;;4375052;32;318736;-81
2023/06/24 11:52:41;;;;;;;19.77;12.07;;;;;;;;;;4386008;32;318850;-82
2023/06/24 11:55:17;;;;;;;24.20;12.32;;;;;;;;;;4376758;32;318794;-80
2023/06/24 11:57:54;;;;;;;26.05;12.30;;;;;;;;;;4385177;32;318936;-78
2023/06/24 12:00:23;;;;;;;20.02;12.57;;;;;;;;;;4373444;32;418328;-78
2023/06/24 12:02:57;;;;;;;16.55;10.75;;;;;;;;;;4386796;32;318834;-78
2023/06/24 12:05:28;;;;;;;13.52;11.10;;;;;;;;;;4373139;32;418373;-79
2023/06/24 12:07:59;;;;;;;19.87;10.35;;;;;;;;;;4376882;32;318932;-85
2023/06/24 12:10:28;;;;;;;15.27;10.85;;;;;;;;;;4386372;32;318810;-79
2023/06/24 12:12:58;;;;;;;18.30;11.95;;;;;;;;;;4370189;32;353375;-78
2023/06/24 12:15:25;;;;;;;19.35;11.18;;;;;;;;;;4387178;32;318648;-82
2023/06/24 12:17:53;;;;;;;18.23;11.98;;;;;;;;;;4385702;32;318967;-79
2023/06/24 12:20:20;;;;;;;15.25;11.65;;;;;;;;;;4376515;32;417885;-79
2023/06/24 12:22:48;;;;;;;17.87;10.98;;;;;;;;;;4388699;32;329142;-79
2023/06/24 12:25:16;;;;;;;14.30;11.65;;;;;;;;;;4375490;32;355395;-79
2023/06/24 12:27:44;;;;;;;17.17;10.75;;;;;;;;;;4386887;32;319053;-83
2023/06/24 12:30:13;;;;;;;16.67;11.88;;;;;;;;;;4374059;32;318970;-81
2023/06/24 12:32:41;;;;;;;19.50;12.23;;;;;;;;;;4385592;32;319004;-82
2023/06/24 12:35:10;;;;;;;14.63;11.02;;;;;;;;;;4376291;32;319007;-84
2023/06/24 12:37:37;;;;;;;19.35;10.70;;;;;;;;;;4386758;32;319099;-86
2023/06/24 12:40:06;;;;;;;15.73;10.48;;;;;;;;;;4375339;32;318670;-85
2023/06/24 12:42:34;;;;;;;19.70;11.63;;;;;;;;;;4385398;32;318694;-92
2023/06/24 12:45:02;;;;;;;21.12;11.48;;;;;;;;;;4375499;32;318850;-94
2023/06/24 12:47:31;;;;;;;18.45;11.80;;;;;;;;;;4386328;32;318755;-94
2023/06/24 12:49:58;;;;;;;21.50;13.82;;;;;;;;;;4374938;32;318813;-94
2023/06/24 12:52:25;;;;;;;25.33;15.68;;;;;;;;;;4386375;32;318999;-81
2023/06/24 12:54:52;;;;;;;24.00;15.10;;;;;;;;;;4386123;32;337948;-88
2023/06/24 12:57:20;;;;;;;29.73;15.68;;;;;;;;;;4370994;32;417865;-83
2023/06/24 12:59:47;;;;;;;31.35;15.65;;;;;;;;;;4387309;32;317586;-96
2023/06/24 13:02:14;;;;;;;24.17;14.90;;;;;;;;;;4375452;32;319023;-91
2023/06/24 13:04:43;;;;;;;15.43;12.27;;;;;;;;;;4385634;32;319043;-85
2023/06/24 13:07:10;;;;;;;18.55;11.45;;;;;;;;;;4375972;32;318858;-94
2023/06/24 13:09:38;;;;;;;15.95;11.65;;;;;;;;;;4385127;32;318809;-80
2023/06/24 13:12:08;;;;;;;18.50;10.88;;;;;;;;;;4376231;32;319007;-80
2023/06/24 13:14:35;;;;;;;20.12;10.10;;;;;;;;;;4384956;32;318974;-81
2023/06/24 13:17:02;;;;;;;14.05;9.75;;;;;;;;;;4375907;32;318802;-80
2023/06/24 13:19:32;;;;;;;16.20;10.57;;;;;;;;;;4385406;32;317925;-80
2023/06/24 13:22:01;;;;;;;13.93;9.95;;;;;;;;;;4375210;32;318849;-80
2023/06/24 13:24:28;;;;;;;14.63;10.50;;;;;;;;;;4384460;32;317775;-93
2023/06/24 13:26:55;;;;;;;20.23;10.68;;;;;;;;;;4376197;32;319074;-90
2023/06/24 13:29:22;;;;;;;15.02;10.10;;;;;;;;;;4384011;32;319061;-86
2023/06/24 13:31:50;;;;;;;13.62;9.68;;;;;;;;;;4390832;32;319077;-90
2023/06/24 13:34:17;;;;;;;19.20;9.63;;;;;;;;;;4388886;32;416575;-94
2023/06/24 13:36:44;;;;;;;17.67;9.88;;;;;;;;;;4401733;32;317858;-95
2023/06/24 13:39:16;;;;;;;13.43;9.45;;;;;;;;;;4392313;32;317997;-93
2023/06/24 13:41:45;;;;;;;15.57;10.65;;;;;;;;;;4405170;32;317769;-94
2023/06/24 13:44:12;;;;;;;11.82;9.05;;;;;;;;;;4393414;32;318998;-95
2023/06/24 13:46:39;;;;;;;13.80;9.73;;;;;;;;;;4403372;32;317666;-94
2023/06/24 13:49:07;;;;;;;16.20;10.68;;;;;;;;;;4391087;32;318124;-83
2023/06/24 13:51:35;;;;;;;18.25;9.68;;;;;;;;;;4404505;32;318880;-93
2023/06/24 13:54:02;;;;;;;25.00;11.43;;;;;;;;;;4394210;32;317822;-94
2023/06/24 13:56:31;;;;;;;17.55;11.05;;;;;;;;;;4402354;32;336760;-95
2023/06/24 13:58:59;;;;;;;21.92;11.40;;;;;;;;;;4393297;32;318760;-95
2023/06/24 14:01:28;;;;;;;21.80;10.85;;;;;;;;;;4402735;32;318837;-93
2023/06/24 14:03:56;;;;;;;17.33;10.00;;;;;;;;;;4393548;32;318893;-80
2023/06/24 14:06:25;;;;;;;13.95;9.65;;;;;;;;;;4402575;32;318818;-81
2023/06/24 14:08:52;;;;;;;18.20;8.63;;;;;;;;;;4393190;32;317823;-81
2023/06/24 14:11:20;;;;;;;21.40;10.55;;;;;;;;;;4402839;32;317880;-78
2023/06/24 14:13:48;;;;;;;13.27;8.88;;;;;;;;;;4403354;32;318770;-93
2023/06/24 14:16:16;;;;;;;23.77;10.10;;;;;;;;;;4389560;32;418915;-85